ROMMA est une association bénévole à but non lucratif. Votre soutien est indispensable : ADHERER à ROMMA ou FAIRE un DON

Eygliers - (05, Hautes-Alpes)

Guillestrois (965 m)   Longitude: 6° 38' 04" E   Latitude: 44° 40' 37" N Station partenaire n°53
 

Détail journalier du     <<     >>

Température Precipitation Humidité Vent Dir Rafale Dir. rafale Ensol.
Heure (°C) (mm) (%) (km/h) (km/h) (min)
01:00 0.20802NNE11NNE0
02:00 0.30792NE6ENE0
03:00 0.8080000
04:00 1.00792NNE6ENE0
05:00 0.70813SE10ENE0
06:00 1.30811NE5NE0
07:00 1.60812NNE10ESE0
08:00 0.60842NE10NE0
09:00 0.70851NE5NE15
10:00 3.208002NE55
11:00 5.50711OSO6OSO60
12:00 6.30682OSO5OSO30
13:00 7.70623OSO6OSO60
14:00 10.40544OSO10SSO55
15:00 11.10495O11OSO60
16:00 9.40533OSO8OSO60
17:00 5.50721N6N25
18:00 4.007508ESE0
19:00 2.90773ESE10ESE0
20:00 1.60812NE6NE0
21:00 0.60832ENE8ENE0
22:00 0.70834ENE11SSE0
23:00 0.40843NE11NNE0
minuit 0.50842NNE11NE0

Graphique du 29-11-2018

 

Serveur OMMA